sensor_id;sensor_type;location;lat;lon;timestamp;pressure;altitude;pressure_sealevel;temperature
15544;BMP180;7873;52.230;12.856;2024-03-08T00:00:58;101574.19;;;26.68
15544;BMP180;7873;52.230;12.856;2024-03-08T00:03:25;101582.00;;;26.63
15544;BMP180;7873;52.230;12.856;2024-03-08T00:05:52;101582.00;;;26.63
15544;BMP180;7873;52.230;12.856;2024-03-08T00:08:18;101579.50;;;26.62
15544;BMP180;7873;52.230;12.856;2024-03-08T00:10:45;101577.97;;;26.59
15544;BMP180;7873;52.230;12.856;2024-03-08T00:13:11;101581.03;;;26.56
15544;BMP180;7873;52.230;12.856;2024-03-08T00:15:39;101580.19;;;26.56
15544;BMP180;7873;52.230;12.856;2024-03-08T00:18:06;101575.00;;;26.54
15544;BMP180;7873;52.230;12.856;2024-03-08T00:20:33;101572.66;;;26.51
15544;BMP180;7873;52.230;12.856;2024-03-08T00:22:59;101573.00;;;26.48
15544;BMP180;7873;52.230;12.856;2024-03-08T00:25:26;101575.03;;;26.46
15544;BMP180;7873;52.230;12.856;2024-03-08T00:27:53;101569.94;;;26.43
15544;BMP180;7873;52.230;12.856;2024-03-08T00:30:21;101572.66;;;26.43
15544;BMP180;7873;52.230;12.856;2024-03-08T00:32:49;101576.56;;;26.41
15544;BMP180;7873;52.230;12.856;2024-03-08T00:35:16;101573.38;;;26.37
15544;BMP180;7873;52.230;12.856;2024-03-08T00:37:43;101570.03;;;26.35
15544;BMP180;7873;52.230;12.856;2024-03-08T00:40:12;101568.34;;;26.34
15544;BMP180;7873;52.230;12.856;2024-03-08T00:42:39;101566.66;;;26.33
15544;BMP180;7873;52.230;12.856;2024-03-08T00:45:07;101571.41;;;26.31
15544;BMP180;7873;52.230;12.856;2024-03-08T00:47:35;101567.19;;;26.29
15544;BMP180;7873;52.230;12.856;2024-03-08T00:50:04;101565.69;;;26.26
15544;BMP180;7873;52.230;12.856;2024-03-08T00:52:30;101568.75;;;26.23
15544;BMP180;7873;52.230;12.856;2024-03-08T00:54:57;101569.94;;;26.21
15544;BMP180;7873;52.230;12.856;2024-03-08T00:57:23;101570.97;;;26.20
15544;BMP180;7873;52.230;12.856;2024-03-08T00:59:50;101562.19;;;26.18
15544;BMP180;7873;52.230;12.856;2024-03-08T01:02:18;101566.94;;;26.16
15544;BMP180;7873;52.230;12.856;2024-03-08T01:04:44;101559.00;;;26.14
15544;BMP180;7873;52.230;12.856;2024-03-08T01:07:13;101556.81;;;26.10
15544;BMP180;7873;52.230;12.856;2024-03-08T01:09:40;101561.25;;;26.11
15544;BMP180;7873;52.230;12.856;2024-03-08T01:12:07;101548.06;;;26.08
15544;BMP180;7873;52.230;12.856;2024-03-08T01:14:33;101556.53;;;26.05
15544;BMP180;7873;52.230;12.856;2024-03-08T01:17:00;101551.13;;;26.05
15544;BMP180;7873;52.230;12.856;2024-03-08T01:19:26;101540.69;;;26.02
15544;BMP180;7873;52.230;12.856;2024-03-08T01:21:53;101543.38;;;26.02
15544;BMP180;7873;52.230;12.856;2024-03-08T01:24:22;101536.31;;;26.01
15544;BMP180;7873;52.230;12.856;2024-03-08T01:26:48;101531.28;;;25.98
15544;BMP180;7873;52.230;12.856;2024-03-08T01:29:15;101524.34;;;25.95
15544;BMP180;7873;52.230;12.856;2024-03-08T01:31:41;101525.22;;;25.96
15544;BMP180;7873;52.230;12.856;2024-03-08T01:34:08;101522.88;;;25.93
15544;BMP180;7873;52.230;12.856;2024-03-08T01:36:35;101514.13;;;25.91
15544;BMP180;7873;52.230;12.856;2024-03-08T01:39:02;101514.47;;;25.88
15544;BMP180;7873;52.230;12.856;2024-03-08T01:41:34;101513.78;;;25.86
15544;BMP180;7873;52.230;12.856;2024-03-08T01:44:01;101508.38;;;25.86
15544;BMP180;7873;52.230;12.856;2024-03-08T01:46:29;101502.31;;;25.84
15544;BMP180;7873;52.230;12.856;2024-03-08T01:48:56;101505.19;;;25.82
15544;BMP180;7873;52.230;12.856;2024-03-08T01:51:23;101507.03;;;25.82
15544;BMP180;7873;52.230;12.856;2024-03-08T01:53:50;101500.97;;;25.80
15544;BMP180;7873;52.230;12.856;2024-03-08T01:56:17;101501.16;;;25.78
15544;BMP180;7873;52.230;12.856;2024-03-08T01:58:45;101496.94;;;25.76
15544;BMP180;7873;52.230;12.856;2024-03-08T02:01:13;101490.53;;;25.77
15544;BMP180;7873;52.230;12.856;2024-03-08T02:03:40;101493.41;;;25.75
15544;BMP180;7873;52.230;12.856;2024-03-08T02:06:09;101498.13;;;25.73
15544;BMP180;7873;52.230;12.856;2024-03-08T02:08:35;101493.94;;;25.71
15544;BMP180;7873;52.230;12.856;2024-03-08T02:11:02;101490.38;;;25.70
15544;BMP180;7873;52.230;12.856;2024-03-08T02:13:30;101496.81;;;25.69
15544;BMP180;7873;52.230;12.856;2024-03-08T02:16:00;101486.19;;;25.68
15544;BMP180;7873;52.230;12.856;2024-03-08T02:18:27;101497.00;;;25.68
15544;BMP180;7873;52.230;12.856;2024-03-08T02:20:55;101486.38;;;25.66
15544;BMP180;7873;52.230;12.856;2024-03-08T02:23:22;101497.34;;;25.65
15544;BMP180;7873;52.230;12.856;2024-03-08T02:25:50;101490.25;;;25.64
15544;BMP180;7873;52.230;12.856;2024-03-08T02:28:17;101488.75;;;25.61
15544;BMP180;7873;52.230;12.856;2024-03-08T02:30:45;101482.50;;;25.61
15544;BMP180;7873;52.230;12.856;2024-03-08T02:33:13;101486.41;;;25.58
15544;BMP180;7873;52.230;12.856;2024-03-08T02:35:42;101482.88;;;25.58
15544;BMP180;7873;52.230;12.856;2024-03-08T02:38:12;101489.94;;;25.59
15544;BMP180;7873;52.230;12.856;2024-03-08T02:40:38;101487.25;;;25.59
15544;BMP180;7873;52.230;12.856;2024-03-08T02:43:05;101480.34;;;25.57
15544;BMP180;7873;52.230;12.856;2024-03-08T02:45:32;101482.41;;;25.55
15544;BMP180;7873;52.230;12.856;2024-03-08T02:47:58;101476.50;;;25.51
15544;BMP180;7873;52.230;12.856;2024-03-08T02:50:25;101465.88;;;25.50
15544;BMP180;7873;52.230;12.856;2024-03-08T02:52:51;101473.97;;;25.50
15544;BMP180;7873;52.230;12.856;2024-03-08T02:55:19;101472.13;;;25.50
15544;BMP180;7873;52.230;12.856;2024-03-08T02:57:46;101472.28;;;25.49
15544;BMP180;7873;52.230;12.856;2024-03-08T03:00:13;101469.78;;;25.47
15544;BMP180;7873;52.230;12.856;2024-03-08T03:02:41;101463.72;;;25.45
15544;BMP180;7873;52.230;12.856;2024-03-08T03:05:08;101464.91;;;25.43
15544;BMP180;7873;52.230;12.856;2024-03-08T03:07:35;101463.22;;;25.42
15544;BMP180;7873;52.230;12.856;2024-03-08T03:10:03;101454.31;;;25.41
15544;BMP180;7873;52.230;12.856;2024-03-08T03:12:31;101457.16;;;25.40
15544;BMP180;7873;52.230;12.856;2024-03-08T03:14:59;101459.19;;;25.38
15544;BMP180;7873;52.230;12.856;2024-03-08T03:17:26;101458.53;;;25.36
15544;BMP180;7873;52.230;12.856;2024-03-08T03:19:52;101449.44;;;25.37
15544;BMP180;7873;52.230;12.856;2024-03-08T03:22:19;101452.28;;;25.35
15544;BMP180;7873;52.230;12.856;2024-03-08T03:24:47;101455.00;;;25.35
15544;BMP180;7873;52.230;12.856;2024-03-08T03:27:14;101447.09;;;25.34
15544;BMP180;7873;52.230;12.856;2024-03-08T03:29:43;101453.84;;;25.30
15544;BMP180;7873;52.230;12.856;2024-03-08T03:32:11;101446.09;;;25.27
15544;BMP180;7873;52.230;12.856;2024-03-08T03:34:37;101456.03;;;25.26
15544;BMP180;7873;52.230;12.856;2024-03-08T03:37:04;101452.50;;;25.26
15544;BMP180;7873;52.230;12.856;2024-03-08T03:39:32;101450.00;;;25.24
15544;BMP180;7873;52.230;12.856;2024-03-08T03:41:59;101445.31;;;25.18
15544;BMP180;7873;52.230;12.856;2024-03-08T03:44:27;101443.44;;;25.19
15544;BMP180;7873;52.230;12.856;2024-03-08T03:46:55;101445.31;;;25.18
15544;BMP180;7873;52.230;12.856;2024-03-08T03:49:21;101449.13;;;25.16
15544;BMP180;7873;52.230;12.856;2024-03-08T03:51:49;101450.97;;;25.15
15544;BMP180;7873;52.230;12.856;2024-03-08T03:54:15;101449.13;;;25.16
15544;BMP180;7873;52.230;12.856;2024-03-08T03:56:42;101451.16;;;25.14
15544;BMP180;7873;52.230;12.856;2024-03-08T03:59:08;101453.38;;;25.10
15544;BMP180;7873;52.230;12.856;2024-03-08T04:01:34;101450.19;;;25.07
15544;BMP180;7873;52.230;12.856;2024-03-08T04:04:03;101451.38;;;25.04
15544;BMP180;7873;52.230;12.856;2024-03-08T04:06:30;101444.47;;;25.02
15544;BMP180;7873;52.230;12.856;2024-03-08T04:08:57;101445.81;;;24.98
15544;BMP180;7873;52.230;12.856;2024-03-08T04:11:23;101453.91;;;24.98
15544;BMP180;7873;52.230;12.856;2024-03-08T04:13:50;101457.81;;;24.95
15544;BMP180;7873;52.230;12.856;2024-03-08T04:16:18;101455.94;;;24.96
15544;BMP180;7873;52.230;12.856;2024-03-08T04:18:44;101451.56;;;24.95
15544;BMP180;7873;52.230;12.856;2024-03-08T04:21:12;101452.06;;;24.90
15544;BMP180;7873;52.230;12.856;2024-03-08T04:23:38;101441.28;;;24.90
15544;BMP180;7873;52.230;12.856;2024-03-08T04:26:05;101448.03;;;24.86
15544;BMP180;7873;52.230;12.856;2024-03-08T04:28:32;101448.53;;;24.90
15544;BMP180;7873;52.230;12.856;2024-03-08T04:30:59;101451.59;;;24.87
15544;BMP180;7873;52.230;12.856;2024-03-08T04:33:26;101452.75;;;24.84
15544;BMP180;7873;52.230;12.856;2024-03-08T04:35:53;101459.16;;;24.83
15544;BMP180;7873;52.230;12.856;2024-03-08T04:38:21;101449.41;;;24.82
15544;BMP180;7873;52.230;12.856;2024-03-08T04:40:48;101446.56;;;24.84
15544;BMP180;7873;52.230;12.856;2024-03-08T04:43:14;101449.75;;;24.79
15544;BMP180;7873;52.230;12.856;2024-03-08T04:45:41;101448.72;;;24.80
15544;BMP180;7873;52.230;12.856;2024-03-08T04:48:09;101440.66;;;24.80
15544;BMP180;7873;52.230;12.856;2024-03-08T04:50:36;101445.84;;;24.82
15544;BMP180;7873;52.230;12.856;2024-03-08T04:53:03;101445.38;;;24.78
15544;BMP180;7873;52.230;12.856;2024-03-08T04:55:34;101446.38;;;24.77
15544;BMP180;7873;52.230;12.856;2024-03-08T04:58:03;101442.47;;;24.80
15544;BMP180;7873;52.230;12.856;2024-03-08T05:00:31;101439.47;;;24.75
15544;BMP180;7873;52.230;12.856;2024-03-08T05:02:57;101444.03;;;24.74
15544;BMP180;7873;52.230;12.856;2024-03-08T05:05:24;101440.47;;;24.74
15544;BMP180;7873;52.230;12.856;2024-03-08T05:07:51;101447.06;;;24.79
15544;BMP180;7873;52.230;12.856;2024-03-08T05:10:18;101436.63;;;24.76
15544;BMP180;7873;52.230;12.856;2024-03-08T05:12:46;101437.44;;;24.77
15544;BMP180;7873;52.230;12.856;2024-03-08T05:15:13;101437.63;;;24.75
15544;BMP180;7873;52.230;12.856;2024-03-08T05:17:39;101433.25;;;24.74
15544;BMP180;7873;52.230;12.856;2024-03-08T05:20:08;101423.50;;;24.73
15544;BMP180;7873;52.230;12.856;2024-03-08T05:22:37;101431.75;;;24.72
15544;BMP180;7873;52.230;12.856;2024-03-08T05:25:05;101431.91;;;24.70
15544;BMP180;7873;52.230;12.856;2024-03-08T05:27:33;101422.81;;;24.71
15544;BMP180;7873;52.230;12.856;2024-03-08T05:30:01;101422.47;;;24.66
15544;BMP180;7873;52.230;12.856;2024-03-08T05:32:29;101416.25;;;24.50
15544;BMP180;7873;52.230;12.856;2024-03-08T05:34:55;101416.25;;;24.50
15544;BMP180;7873;52.230;12.856;2024-03-08T05:37:22;101411.72;;;24.50
15544;BMP180;7873;52.230;12.856;2024-03-08T05:39:48;101419.50;;;24.53
15544;BMP180;7873;52.230;12.856;2024-03-08T05:42:15;101423.69;;;24.56
15544;BMP180;7873;52.230;12.856;2024-03-08T05:44:41;101416.59;;;24.55
15544;BMP180;7873;52.230;12.856;2024-03-08T05:47:10;101417.94;;;24.59
15544;BMP180;7873;52.230;12.856;2024-03-08T05:49:36;101428.06;;;24.65
15544;BMP180;7873;52.230;12.856;2024-03-08T05:52:04;101423.16;;;24.68
15544;BMP180;7873;52.230;12.856;2024-03-08T05:54:31;101417.59;;;24.70
15544;BMP180;7873;52.230;12.856;2024-03-08T05:56:58;101412.88;;;24.72
15544;BMP180;7873;52.230;12.856;2024-03-08T05:59:25;101411.72;;;24.74
15544;BMP180;7873;52.230;12.856;2024-03-08T06:01:52;101416.09;;;24.75
15544;BMP180;7873;52.230;12.856;2024-03-08T06:04:20;101412.84;;;24.80
15544;BMP180;7873;52.230;12.856;2024-03-08T06:06:46;101419.09;;;24.80
15544;BMP180;7873;52.230;12.856;2024-03-08T06:09:12;101414.06;;;24.77
15544;BMP180;7873;52.230;12.856;2024-03-08T06:11:41;101417.91;;;24.75
15544;BMP180;7873;52.230;12.856;2024-03-08T06:14:07;101421.81;;;24.72
15544;BMP180;7873;52.230;12.856;2024-03-08T06:16:34;101421.63;;;24.74
15544;BMP180;7873;52.230;12.856;2024-03-08T06:19:01;101415.75;;;24.78
15544;BMP180;7873;52.230;12.856;2024-03-08T06:21:29;101417.91;;;24.83
15544;BMP180;7873;52.230;12.856;2024-03-08T06:23:56;101413.69;;;24.88
15544;BMP180;7873;52.230;12.856;2024-03-08T06:26:23;101409.31;;;24.95
15544;BMP180;7873;52.230;12.856;2024-03-08T06:28:50;101417.00;;;25.06
15544;BMP180;7873;52.230;12.856;2024-03-08T06:31:17;101411.44;;;25.08
15544;BMP180;7873;52.230;12.856;2024-03-08T06:33:43;101407.72;;;25.09
15544;BMP180;7873;52.230;12.856;2024-03-08T06:36:10;101408.03;;;25.22
15544;BMP180;7873;52.230;12.856;2024-03-08T06:38:38;101407.00;;;25.31
15544;BMP180;7873;52.230;12.856;2024-03-08T06:41:07;101407.44;;;24.96
15544;BMP180;7873;52.230;12.856;2024-03-08T06:43:34;101410.22;;;24.64
15544;BMP180;7873;52.230;12.856;2024-03-08T06:46:01;101407.19;;;24.51
15544;BMP180;7873;52.230;12.856;2024-03-08T06:48:29;101411.91;;;24.65
15544;BMP180;7873;52.230;12.856;2024-03-08T06:50:55;101401.75;;;24.75
15544;BMP180;7873;52.230;12.856;2024-03-08T06:53:22;101410.31;;;24.86
15544;BMP180;7873;52.230;12.856;2024-03-08T06:55:51;101400.19;;;24.96
15544;BMP180;7873;52.230;12.856;2024-03-08T06:58:18;101405.78;;;24.87
15544;BMP180;7873;52.230;12.856;2024-03-08T07:00:44;101404.72;;;24.96
15544;BMP180;7873;52.230;12.856;2024-03-08T07:03:12;101401.31;;;25.18
15544;BMP180;7873;52.230;12.856;2024-03-08T07:05:42;101396.97;;;25.39
15544;BMP180;7873;52.230;12.856;2024-03-08T07:08:09;101398.88;;;25.61
15544;BMP180;7873;52.230;12.856;2024-03-08T07:10:37;101401.78;;;25.82
15544;BMP180;7873;52.230;12.856;2024-03-08T07:13:08;101401.84;;;26.04
15544;BMP180;7873;52.230;12.856;2024-03-08T07:15:35;101393.41;;;26.22
15544;BMP180;7873;52.230;12.856;2024-03-08T07:18:02;101387.03;;;26.37
15544;BMP180;7873;52.230;12.856;2024-03-08T07:20:29;101389.78;;;26.52
15544;BMP180;7873;52.230;12.856;2024-03-08T07:22:55;101388.59;;;26.69
15544;BMP180;7873;52.230;12.856;2024-03-08T07:25:22;101389.81;;;26.81
15544;BMP180;7873;52.230;12.856;2024-03-08T07:27:50;101390.38;;;26.91
15544;BMP180;7873;52.230;12.856;2024-03-08T07:30:19;101386.84;;;27.05
15544;BMP180;7873;52.230;12.856;2024-03-08T07:33:04;101391.59;;;27.17
15544;BMP180;7873;52.230;12.856;2024-03-08T07:35:32;101385.88;;;27.27
15544;BMP180;7873;52.230;12.856;2024-03-08T07:37:59;101385.97;;;27.33
15544;BMP180;7873;52.230;12.856;2024-03-08T07:40:25;101385.22;;;27.39
15544;BMP180;7873;52.230;12.856;2024-03-08T07:42:52;101382.41;;;27.47
15544;BMP180;7873;52.230;12.856;2024-03-08T07:45:20;101382.19;;;27.48
15544;BMP180;7873;52.230;12.856;2024-03-08T07:47:47;101374.28;;;27.47
15544;BMP180;7873;52.230;12.856;2024-03-08T07:50:14;101377.81;;;27.47
15544;BMP180;7873;52.230;12.856;2024-03-08T07:52:41;101367.94;;;27.54
15544;BMP180;7873;52.230;12.856;2024-03-08T07:55:08;101369.69;;;27.62
15544;BMP180;7873;52.230;12.856;2024-03-08T07:57:35;101365.00;;;27.70
15544;BMP180;7873;52.230;12.856;2024-03-08T08:00:04;101369.00;;;27.74
15544;BMP180;7873;52.230;12.856;2024-03-08T08:02:34;101363.22;;;27.77
15544;BMP180;7873;52.230;12.856;2024-03-08T08:05:00;101365.97;;;27.84
15544;BMP180;7873;52.230;12.856;2024-03-08T08:07:27;101367.44;;;27.86
15544;BMP180;7873;52.230;12.856;2024-03-08T08:09:53;101364.75;;;27.86
15544;BMP180;7873;52.230;12.856;2024-03-08T08:12:20;101361.25;;;27.92
15544;BMP180;7873;52.230;12.856;2024-03-08T08:14:46;101367.13;;;27.96
15544;BMP180;7873;52.230;12.856;2024-03-08T08:17:13;101367.59;;;27.99
15544;BMP180;7873;52.230;12.856;2024-03-08T08:19:41;101353.19;;;27.99
15544;BMP180;7873;52.230;12.856;2024-03-08T08:22:08;101359.25;;;28.01
15544;BMP180;7873;52.230;12.856;2024-03-08T08:24:35;101352.63;;;28.03
15544;BMP180;7873;52.230;12.856;2024-03-08T08:27:02;101351.59;;;28.04
15544;BMP180;7873;52.230;12.856;2024-03-08T08:29:28;101351.78;;;28.03
15544;BMP180;7873;52.230;12.856;2024-03-08T08:31:57;101352.22;;;28.06
15544;BMP180;7873;52.230;12.856;2024-03-08T08:34:24;101344.50;;;28.03
15544;BMP180;7873;52.230;12.856;2024-03-08T08:36:53;101342.19;;;28.00
15544;BMP180;7873;52.230;12.856;2024-03-08T08:39:19;101345.53;;;28.02
15544;BMP180;7873;52.230;12.856;2024-03-08T08:41:48;101340.28;;;28.01
15544;BMP180;7873;52.230;12.856;2024-03-08T08:44:14;101337.81;;;27.99
15544;BMP180;7873;52.230;12.856;2024-03-08T08:46:41;101337.81;;;27.99
15544;BMP180;7873;52.230;12.856;2024-03-08T08:49:08;101335.91;;;28.00
15544;BMP180;7873;52.230;12.856;2024-03-08T08:51:35;101337.59;;;28.01
15544;BMP180;7873;52.230;12.856;2024-03-08T08:54:03;101327.63;;;28.01
15544;BMP180;7873;52.230;12.856;2024-03-08T08:56:31;101324.91;;;28.01
15544;BMP180;7873;52.230;12.856;2024-03-08T08:58:58;101326.06;;;27.92
15544;BMP180;7873;52.230;12.856;2024-03-08T09:01:24;101325.88;;;27.94
15544;BMP180;7873;52.230;12.856;2024-03-08T09:03:51;101323.81;;;27.96
15544;BMP180;7873;52.230;12.856;2024-03-08T09:06:19;101317.75;;;27.94
15544;BMP180;7873;52.230;12.856;2024-03-08T09:08:46;101319.38;;;27.88
15544;BMP180;7873;52.230;12.856;2024-03-08T09:11:13;101314.97;;;27.87
15544;BMP180;7873;52.230;12.856;2024-03-08T09:13:40;101322.66;;;27.84
15544;BMP180;7873;52.230;12.856;2024-03-08T09:16:07;101310.53;;;27.80
15544;BMP180;7873;52.230;12.856;2024-03-08T09:18:36;101313.22;;;27.73
15544;BMP180;7873;52.230;12.856;2024-03-08T09:21:03;101311.84;;;27.69
15544;BMP180;7873;52.230;12.856;2024-03-08T09:23:30;101310.97;;;27.62
15544;BMP180;7873;52.230;12.856;2024-03-08T09:25:57;101303.88;;;27.61
15544;BMP180;7873;52.230;12.856;2024-03-08T09:28:25;101304.44;;;27.57
15544;BMP180;7873;52.230;12.856;2024-03-08T09:30:52;101300.06;;;27.56
15544;BMP180;7873;52.230;12.856;2024-03-08T09:33:20;101295.63;;;27.48
15544;BMP180;7873;52.230;12.856;2024-03-08T09:35:47;101292.09;;;27.48
15544;BMP180;7873;52.230;12.856;2024-03-08T09:38:14;101296.22;;;27.44
15544;BMP180;7873;52.230;12.856;2024-03-08T09:40:41;101295.75;;;27.40
15544;BMP180;7873;52.230;12.856;2024-03-08T09:43:08;101309.50;;;27.39
15544;BMP180;7873;52.230;12.856;2024-03-08T09:45:40;101291.38;;;27.39
15544;BMP180;7873;52.230;12.856;2024-03-08T09:48:10;101292.59;;;27.37
15544;BMP180;7873;52.230;12.856;2024-03-08T09:50:37;101294.84;;;27.34
15544;BMP180;7873;52.230;12.856;2024-03-08T09:53:04;101280.41;;;27.27
15544;BMP180;7873;52.230;12.856;2024-03-08T09:55:34;101282.47;;;27.25
15544;BMP180;7873;52.230;12.856;2024-03-08T09:58:05;101276.03;;;27.26
15544;BMP180;7873;52.230;12.856;2024-03-08T10:01:03;101274.91;;;27.35
15544;BMP180;7873;52.230;12.856;2024-03-08T10:03:32;101277.47;;;27.42
15544;BMP180;7873;52.230;12.856;2024-03-08T10:05:59;101270.19;;;27.43
15544;BMP180;7873;52.230;12.856;2024-03-08T10:08:26;101258.34;;;27.44
15544;BMP180;7873;52.230;12.856;2024-03-08T10:10:52;101263.16;;;27.48
15544;BMP180;7873;52.230;12.856;2024-03-08T10:13:19;101262.41;;;27.54
15544;BMP180;7873;52.230;12.856;2024-03-08T10:15:46;101263.16;;;27.48
15544;BMP180;7873;52.230;12.856;2024-03-08T10:18:13;101262.97;;;27.50
15544;BMP180;7873;52.230;12.856;2024-03-08T10:20:40;101257.50;;;27.43
15544;BMP180;7873;52.230;12.856;2024-03-08T10:23:07;101256.06;;;27.47
15544;BMP180;7873;52.230;12.856;2024-03-08T10:25:35;101251.38;;;27.56
15544;BMP180;7873;52.230;12.856;2024-03-08T10:28:03;101248.25;;;27.59
15544;BMP180;7873;52.230;12.856;2024-03-08T10:30:30;101253.09;;;27.63
15544;BMP180;7873;52.230;12.856;2024-03-08T10:32:58;101246.16;;;27.54
15544;BMP180;7873;52.230;12.856;2024-03-08T10:35:26;101248.28;;;27.38
15544;BMP180;7873;52.230;12.856;2024-03-08T10:37:52;101243.31;;;27.41
15544;BMP180;7873;52.230;12.856;2024-03-08T10:40:25;101240.63;;;27.41
15544;BMP180;7873;52.230;12.856;2024-03-08T10:42:53;101239.47;;;27.30
15544;BMP180;7873;52.230;12.856;2024-03-08T10:45:31;101236.75;;;26.59
15544;BMP180;7873;52.230;12.856;2024-03-08T10:48:21;101237.19;;;26.04
15544;BMP180;7873;52.230;12.856;2024-03-08T10:50:55;101232.88;;;26.10
15544;BMP180;7873;52.230;12.856;2024-03-08T10:53:23;101240.38;;;26.22
15544;BMP180;7873;52.230;12.856;2024-03-08T10:55:51;101232.91;;;26.24
15544;BMP180;7873;52.230;12.856;2024-03-08T10:58:20;101230.75;;;26.20
15544;BMP180;7873;52.230;12.856;2024-03-08T11:00:47;101215.97;;;26.16
15544;BMP180;7873;52.230;12.856;2024-03-08T11:03:49;101222.47;;;26.21
15544;BMP180;7873;52.230;12.856;2024-03-08T11:06:23;101224.34;;;26.21
15544;BMP180;7873;52.230;12.856;2024-03-08T11:08:50;101217.38;;;26.12
15544;BMP180;7873;52.230;12.856;2024-03-08T11:11:27;101211.47;;;26.08
15544;BMP180;7873;52.230;12.856;2024-03-08T11:13:55;101209.44;;;26.10
15544;BMP180;7873;52.230;12.856;2024-03-08T11:16:38;101205.06;;;26.09
15544;BMP180;7873;52.230;12.856;2024-03-08T11:19:23;101193.41;;;26.09
15544;BMP180;7873;52.230;12.856;2024-03-08T11:21:58;101194.81;;;26.05
15544;BMP180;7873;52.230;12.856;2024-03-08T11:24:25;101181.69;;;26.02
15544;BMP180;7873;52.230;12.856;2024-03-08T11:26:56;101184.94;;;25.97
15544;BMP180;7873;52.230;12.856;2024-03-08T11:29:32;101170.63;;;25.97
15544;BMP180;7873;52.230;12.856;2024-03-08T11:32:04;101168.94;;;25.96
15544;BMP180;7873;52.230;12.856;2024-03-08T11:34:31;101150.22;;;25.94
15544;BMP180;7873;52.230;12.856;2024-03-08T11:36:59;101160.19;;;25.94
15544;BMP180;7873;52.230;12.856;2024-03-08T11:39:26;101160.19;;;25.94
15544;BMP180;7873;52.230;12.856;2024-03-08T11:41:54;101155.34;;;25.89
15544;BMP180;7873;52.230;12.856;2024-03-08T11:44:20;101155.56;;;25.88
15544;BMP180;7873;52.230;12.856;2024-03-08T11:46:47;101141.72;;;25.83
15544;BMP180;7873;52.230;12.856;2024-03-08T11:49:13;101141.06;;;25.81
15544;BMP180;7873;52.230;12.856;2024-03-08T11:51:41;101147.50;;;25.80
15544;BMP180;7873;52.230;12.856;2024-03-08T11:54:12;101137.25;;;25.75
15544;BMP180;7873;52.230;12.856;2024-03-08T11:56:39;101137.63;;;25.72
15544;BMP180;7873;52.230;12.856;2024-03-08T11:59:11;101126.38;;;25.69
15544;BMP180;7873;52.230;12.856;2024-03-08T12:01:38;101128.59;;;25.65
15544;BMP180;7873;52.230;12.856;2024-03-08T12:04:05;101123.59;;;25.62
15544;BMP180;7873;52.230;12.856;2024-03-08T12:06:37;101118.72;;;25.58
15544;BMP180;7873;52.230;12.856;2024-03-08T12:09:08;101106.28;;;25.57
15544;BMP180;7873;52.230;12.856;2024-03-08T12:11:37;101113.06;;;25.53
15544;BMP180;7873;52.230;12.856;2024-03-08T12:14:04;101107.84;;;25.52
15544;BMP180;7873;52.230;12.856;2024-03-08T12:16:31;101098.06;;;25.51
15544;BMP180;7873;52.230;12.856;2024-03-08T12:18:59;101099.09;;;25.50
15544;BMP180;7873;52.230;12.856;2024-03-08T12:21:26;101094.72;;;25.49
15544;BMP180;7873;52.230;12.856;2024-03-08T12:24:05;101086.84;;;25.47
15544;BMP180;7873;52.230;12.856;2024-03-08T12:26:37;101082.63;;;25.45
15544;BMP180;7873;52.230;12.856;2024-03-08T12:29:17;101074.91;;;25.42
15544;BMP180;7873;52.230;12.856;2024-03-08T12:31:46;101075.09;;;25.40
15544;BMP180;7873;52.230;12.856;2024-03-08T12:34:12;101074.44;;;25.38
15544;BMP180;7873;52.230;12.856;2024-03-08T12:36:44;101067.59;;;25.36
15544;BMP180;7873;52.230;12.856;2024-03-08T12:39:13;101070.44;;;25.34
15544;BMP180;7873;52.230;12.856;2024-03-08T12:41:42;101067.94;;;25.33
15544;BMP180;7873;52.230;12.856;2024-03-08T12:44:09;101062.56;;;25.33
15544;BMP180;7873;52.230;12.856;2024-03-08T12:46:37;101051.78;;;25.33
15544;BMP180;7873;52.230;12.856;2024-03-08T12:49:07;101062.56;;;25.33
15544;BMP180;7873;52.230;12.856;2024-03-08T12:51:33;101062.72;;;25.31
15544;BMP180;7873;52.230;12.856;2024-03-08T12:54:00;101053.13;;;25.29
15544;BMP180;7873;52.230;12.856;2024-03-08T12:56:31;101052.31;;;25.28
15544;BMP180;7873;52.230;12.856;2024-03-08T12:59:00;101052.50;;;25.27
15544;BMP180;7873;52.230;12.856;2024-03-08T13:01:28;101050.66;;;25.27
15544;BMP180;7873;52.230;12.856;2024-03-08T13:03:55;101038.19;;;25.26
15544;BMP180;7873;52.230;12.856;2024-03-08T13:06:22;101035.66;;;25.25
15544;BMP180;7873;52.230;12.856;2024-03-08T13:08:50;101026.56;;;25.26
15544;BMP180;7873;52.230;12.856;2024-03-08T13:11:16;101032.16;;;25.24
15544;BMP180;7873;52.230;12.856;2024-03-08T13:13:44;101022.38;;;25.23
15544;BMP180;7873;52.230;12.856;2024-03-08T13:16:13;101028.59;;;25.24
15544;BMP180;7873;52.230;12.856;2024-03-08T13:18:40;101020.50;;;25.24
15544;BMP180;7873;52.230;12.856;2024-03-08T13:21:08;101022.38;;;25.23
15544;BMP180;7873;52.230;12.856;2024-03-08T13:23:36;101023.22;;;25.24
15544;BMP180;7873;52.230;12.856;2024-03-08T13:26:05;101020.50;;;25.24
15544;BMP180;7873;52.230;12.856;2024-03-08T13:28:32;101015.78;;;25.26
15544;BMP180;7873;52.230;12.856;2024-03-08T13:31:03;101010.75;;;25.23
15544;BMP180;7873;52.230;12.856;2024-03-08T13:33:33;101010.09;;;25.21
15544;BMP180;7873;52.230;12.856;2024-03-08T13:36:01;101003.91;;;25.20
15544;BMP180;7873;52.230;12.856;2024-03-08T13:38:28;100996.81;;;25.19
15544;BMP180;7873;52.230;12.856;2024-03-08T13:40:58;100998.50;;;25.20
15544;BMP180;7873;52.230;12.856;2024-03-08T13:43:24;100997.47;;;25.21
15544;BMP180;7873;52.230;12.856;2024-03-08T13:45:53;100996.13;;;25.17
15544;BMP180;7873;52.230;12.856;2024-03-08T13:48:20;100987.72;;;25.20
15544;BMP180;7873;52.230;12.856;2024-03-08T13:50:49;100981.16;;;25.15
15544;BMP180;7873;52.230;12.856;2024-03-08T13:53:17;100979.28;;;25.15
15544;BMP180;7873;52.230;12.856;2024-03-08T13:55:44;100970.91;;;25.18
15544;BMP180;7873;52.230;12.856;2024-03-08T13:58:10;100976.72;;;25.22
15544;BMP180;7873;52.230;12.856;2024-03-08T14:00:39;100970.53;;;25.21